Etusivu
METAR-TAF:

METAR-TAF

Lentoasemat :

Sotilaslentoasema

Meppen, Saksa

Leveyspiiri: 52-43-24N, Pituuspiiri: 007-19-35E, korkeus merenpinnasta: 21 m

Tämänhetkinen sää

Tämä raportti tehtiin 47 minuuttia sitten, kello 03.20 UTC
Tuuli 3 kn lännestä
Lämpötila 0°C
Kosteus 100%
Ilmanpaine 1024 hPa
Näkyvyys 10 km tai enemmän

METAR: ETWM 190320Z AUTO 26003KT 9999 // ////// 00/M00 Q1024 ///

Aika: 05:07 (04:07 UTC)


TAF: puuttuu

Säähavainnot ja -ennusteet yli 4000 lentoasemalta (METAR- ja TAF-raportit).

Käytössä olevat sääasemat on merkitty karttaan keltaisilla ja punaisilla pisteillä.

Aseta hiiri pisteen päälle nähdäksesi sääaseman nimen.

Klikkaa sitten nähdäksesi säähavainnot ja -ennusteet.

Kartan vaihtaminen: klikkaa mustalla rastilla varustettuja vihreitä pisteitä, niin voit zoomata sisään; viivalla varustettua vihreää pistettä, niin voit zoomata ulos tai vihreitä nuolia, niin pääset viereisille kartoille.


METAR-TAF: